Dorloo, New York
Current Conditions -  °F | °C
As of 7:15 AM on Friday 24 Oct 2014 (Local Time) from KNY0 Reporting Station
Overcast Overcast  
Wind Chill: 38°   Ceiling: 2300
Heat Index: 42°   Visibility: 5mi
Dew Point: 41°   Wind: 6mph
Humidity: 97%   Direction: 260°W
Pressure: 29.84"   Gusts: NA
Location:  42.6995°N, 74.5108°W
Report Text: KNY0 241115Z AUTO 26005KT 5SM SCT013 OVC023 06/05 A2984 RMK AO2 P0001 T00550051
Loading
Personal Weather Stations






























Interactive Weather Map
Tropical Storm Tracking
New forecast layout! Learn more

10-Day Weather Forecast

Advertisements
Track Severe Weather on mobile